createdAt,value
2019-02-21T05:01:52.511Z,0.80
2019-02-21T05:04:27.684Z,0.70
2019-02-21T05:07:02.827Z,0.70
2019-02-21T05:09:27.397Z,0.60
2019-02-21T05:11:52.743Z,0.70
2019-02-21T05:14:29.471Z,0.60
2019-02-21T06:01:45.459Z,1.40
2019-02-21T06:04:39.955Z,1.50
2019-02-21T06:07:40.298Z,1.50
2019-02-21T06:10:34.642Z,1.60
2019-02-21T06:13:29.852Z,1.60
2019-02-21T07:01:30.136Z,1.80
2019-02-21T07:03:52.671Z,1.70
2019-02-21T07:06:15.149Z,1.80
2019-02-21T07:08:39.939Z,1.90
2019-02-21T07:11:06.110Z,1.90
2019-02-21T07:13:27.061Z,2.10
2019-02-21T08:02:37.929Z,4.40
2019-02-21T08:05:02.071Z,4.60
2019-02-21T08:07:26.475Z,4.80
2019-02-21T08:09:49.121Z,5.00
2019-02-21T08:12:11.639Z,5.50
2019-02-21T08:14:34.178Z,6.00
2019-02-21T09:00:41.458Z,10.80
2019-02-21T09:03:04.211Z,11.10
2019-02-21T09:05:26.641Z,11.60
2019-02-21T09:07:49.202Z,12.10
2019-02-21T09:10:12.074Z,12.40
2019-02-21T09:12:35.698Z,12.50
2019-02-21T09:14:58.148Z,12.60
2019-02-21T10:02:27.771Z,15.00
2019-02-21T10:04:50.231Z,15.60
2019-02-21T10:07:12.663Z,16.00
2019-02-21T10:09:35.126Z,15.80
2019-02-21T10:11:59.169Z,15.80
2019-02-21T10:14:21.804Z,15.50
2019-02-21T11:07:13.932Z,23.10
2019-02-21T11:09:36.382Z,23.50
2019-02-21T11:11:58.851Z,23.40
2019-02-21T11:14:22.486Z,24.00
2019-02-21T12:06:17.206Z,28.50
2019-02-21T12:08:40.025Z,29.40
2019-02-21T12:11:02.944Z,29.00
2019-02-21T12:13:25.928Z,28.10
2019-02-21T13:07:04.301Z,30.50
2019-02-21T13:09:26.861Z,29.30
2019-02-21T13:11:49.326Z,28.60
2019-02-21T13:14:11.891Z,27.60
2019-02-21T14:01:52.127Z,28.40
2019-02-21T14:04:27.300Z,27.00
2019-02-21T14:07:02.720Z,26.30
2019-02-21T14:09:38.096Z,26.30
2019-02-21T14:12:13.123Z,27.80
2019-02-21T14:14:48.261Z,29.00
2019-02-21T15:02:45.561Z,18.10
2019-02-21T15:05:20.632Z,18.00
2019-02-21T15:07:55.863Z,17.90
2019-02-21T15:10:31.920Z,17.60
2019-02-21T15:13:07.007Z,17.50
2019-02-21T16:02:48.711Z,15.50
2019-02-21T16:05:23.830Z,15.40
2019-02-21T16:07:58.689Z,15.30
2019-02-21T16:10:33.711Z,15.20
2019-02-21T16:12:56.890Z,15.10
2019-02-21T17:01:26.003Z,12.70
2019-02-21T17:03:48.543Z,12.50
2019-02-21T17:06:30.491Z,12.30
2019-02-21T17:09:05.158Z,12.10
2019-02-21T17:11:42.347Z,12.00
2019-02-21T17:14:17.636Z,11.90
2019-02-21T18:01:51.243Z,10.20
2019-02-21T18:04:26.162Z,10.20
2019-02-21T18:07:01.297Z,10.20
2019-02-21T18:09:36.410Z,10.10
2019-02-21T18:12:11.552Z,10.10
2019-02-21T18:41:22.108Z,9.50
2019-02-21T18:56:19.708Z,9.60
2019-02-21T18:58:42.699Z,9.50
2019-02-21T19:01:05.704Z,9.50
2019-02-21T19:03:29.167Z,9.50
2019-02-21T19:05:52.126Z,9.50
2019-02-21T19:08:14.897Z,9.50
2019-02-21T19:10:37.481Z,9.50
2019-02-21T19:13:00.204Z,9.40
2019-02-21T20:01:43.261Z,9.10
2019-02-21T20:04:18.223Z,9.10
2019-02-21T20:06:53.432Z,9.10
2019-02-21T20:09:28.687Z,9.10
2019-02-21T20:12:04.147Z,9.00
2019-02-21T20:14:39.277Z,9.00
2019-02-21T21:00:19.145Z,8.30
2019-02-21T21:02:43.320Z,8.30
2019-02-21T21:05:05.981Z,8.40
2019-02-21T21:07:30.544Z,8.40
2019-02-21T21:09:53.542Z,8.40
2019-02-21T21:12:28.652Z,8.30
